Time;durP1;ratioP1;P1;durP2;ratioP2;P2;SDS_P1;SDS_P2;PMS_P1;PMS_P2;Temp;Humidity;BMP_temperature;BMP_pressure;BME280_temperature;BME280_humidity;BME280_pressure;Samples;Min_cycle;Max_cycle;Signal;HPM_P1;HPM_P2
2022/05/18 00:00:05;;;;;;;8.73;6.50;;;;;;;;;;5052739;28;20041;-31
2022/05/18 00:02:31;;;;;;;9.00;6.93;;;;;;;;;;5052524;28;20212;-31
2022/05/18 00:04:57;;;;;;;9.23;7.60;;;;;;;;;;5052393;28;20039;-30
2022/05/18 00:07:23;;;;;;;8.32;7.15;;;;;;;;;;5033515;28;20091;-30
2022/05/18 00:09:51;;;;;;;7.78;6.97;;;;;;;;;;5032832;28;20432;-32
2022/05/18 00:12:17;;;;;;;9.88;7.18;;;;;;;;;;5035712;28;20569;-29
2022/05/18 00:14:44;;;;;;;9.02;7.90;;;;;;;;;;5033518;28;20076;-30
2022/05/18 00:17:10;;;;;;;8.95;7.95;;;;;;;;;;5031784;28;20077;-30
2022/05/18 00:19:36;;;;;;;8.50;6.78;;;;;;;;;;5032857;28;20049;-31
2022/05/18 00:22:03;;;;;;;8.48;6.68;;;;;;;;;;5032993;28;20412;-30
2022/05/18 00:24:29;;;;;;;10.82;7.20;;;;;;;;;;5032724;28;20038;-31
2022/05/18 00:26:55;;;;;;;9.82;7.40;;;;;;;;;;5032421;28;20041;-31
2022/05/18 00:29:21;;;;;;;9.75;7.07;;;;;;;;;;5033619;28;20045;-31
2022/05/18 00:31:47;;;;;;;11.77;6.93;;;;;;;;;;5043047;28;20048;-30
2022/05/18 00:34:16;;;;;;;9.95;6.90;;;;;;;;;;5052673;28;20063;-33
2022/05/18 00:36:42;;;;;;;10.88;7.22;;;;;;;;;;5051798;28;20059;-32
2022/05/18 00:39:08;;;;;;;8.52;6.70;;;;;;;;;;5043139;28;20045;-33
2022/05/18 00:41:34;;;;;;;9.02;7.32;;;;;;;;;;5035549;28;20067;-33
2022/05/18 00:44:00;;;;;;;8.25;6.80;;;;;;;;;;5046754;28;20032;-34
2022/05/18 00:46:26;;;;;;;7.85;6.80;;;;;;;;;;5033989;28;20413;-32
2022/05/18 00:48:53;;;;;;;8.05;7.18;;;;;;;;;;5050098;28;20036;-33
2022/05/18 00:51:21;;;;;;;7.57;6.75;;;;;;;;;;5023713;28;20040;-32
2022/05/18 00:53:54;;;;;;;8.75;6.78;;;;;;;;;;5030463;28;20067;-31
2022/05/18 00:56:23;;;;;;;7.80;6.93;;;;;;;;;;5042599;28;20051;-33
2022/05/18 00:59:03;;;;;;;8.45;6.40;;;;;;;;;;5003249;28;20502;-29
2022/05/18 01:01:30;;;;;;;8.50;6.55;;;;;;;;;;5017462;28;20048;-29
2022/05/18 01:03:56;;;;;;;6.88;6.25;;;;;;;;;;5032195;28;20124;-32
2022/05/18 01:06:25;;;;;;;7.25;6.00;;;;;;;;;;5027227;28;20044;-32
2022/05/18 01:09:14;;;;;;;8.50;6.97;;;;;;;;;;5047080;28;20191;-33
2022/05/18 01:11:40;;;;;;;8.70;6.55;;;;;;;;;;5041287;28;20048;-35
2022/05/18 01:14:11;;;;;;;7.60;6.50;;;;;;;;;;5040902;28;20033;-33
2022/05/18 01:16:37;;;;;;;9.20;6.65;;;;;;;;;;5044051;28;20094;-36
2022/05/18 01:19:04;;;;;;;6.75;6.05;;;;;;;;;;5042471;28;20399;-34
2022/05/18 01:21:33;;;;;;;6.95;6.25;;;;;;;;;;5049945;28;20167;-31
2022/05/18 01:24:11;;;;;;;9.75;6.90;;;;;;;;;;5048096;28;20044;-32
2022/05/18 01:26:45;;;;;;;9.10;6.70;;;;;;;;;;5036527;28;20041;-34
2022/05/18 01:29:11;;;;;;;9.98;7.45;;;;;;;;;;5041981;28;20034;-34
2022/05/18 01:31:47;;;;;;;8.55;6.50;;;;;;;;;;5046401;28;20387;-33
2022/05/18 01:34:13;;;;;;;8.88;6.72;;;;;;;;;;5031391;28;20065;-32
2022/05/18 01:36:39;;;;;;;8.20;6.93;;;;;;;;;;5031453;28;20368;-32
2022/05/18 01:39:08;;;;;;;9.75;7.28;;;;;;;;;;5013076;28;20487;-33
2022/05/18 01:41:38;;;;;;;9.30;7.10;;;;;;;;;;5042283;28;20115;-30
2022/05/18 01:44:05;;;;;;;9.05;7.35;;;;;;;;;;5051066;28;20041;-31
2022/05/18 01:46:32;;;;;;;8.43;7.03;;;;;;;;;;5050262;28;20069;-30
2022/05/18 01:48:58;;;;;;;10.77;7.78;;;;;;;;;;5038998;28;20049;-32
2022/05/18 01:51:43;;;;;;;9.25;7.20;;;;;;;;;;5029561;28;20084;-32
2022/05/18 01:54:09;;;;;;;9.55;7.78;;;;;;;;;;5048341;28;20049;-30
2022/05/18 01:56:35;;;;;;;8.45;6.82;;;;;;;;;;5050668;28;20047;-33
2022/05/18 01:59:02;;;;;;;8.75;7.85;;;;;;;;;;5043782;28;20522;-31
2022/05/18 02:01:28;;;;;;;8.02;7.22;;;;;;;;;;5045426;28;20497;-33
2022/05/18 02:03:54;;;;;;;11.52;7.38;;;;;;;;;;5044740;28;20047;-30
2022/05/18 02:06:20;;;;;;;9.40;7.47;;;;;;;;;;5042510;28;20402;-32
2022/05/18 02:08:47;;;;;;;8.93;7.97;;;;;;;;;;5034273;28;20048;-33
2022/05/18 02:11:13;;;;;;;9.30;7.57;;;;;;;;;;5041225;28;20036;-33
2022/05/18 02:13:40;;;;;;;10.63;7.30;;;;;;;;;;5042512;28;20040;-33
2022/05/18 02:16:06;;;;;;;8.02;7.22;;;;;;;;;;5035911;28;20041;-33
2022/05/18 02:18:32;;;;;;;8.48;7.55;;;;;;;;;;5037758;28;20398;-32
2022/05/18 02:20:58;;;;;;;8.00;7.20;;;;;;;;;;5054367;28;20071;-33
2022/05/18 02:23:24;;;;;;;9.35;8.43;;;;;;;;;;5040580;28;20481;-33
2022/05/18 02:25:50;;;;;;;12.02;7.20;;;;;;;;;;5047034;28;20065;-30
2022/05/18 02:28:16;;;;;;;8.13;7.30;;;;;;;;;;5048362;28;20090;-32
2022/05/18 02:30:42;;;;;;;11.63;8.05;;;;;;;;;;5036520;28;20120;-33
2022/05/18 02:33:08;;;;;;;9.13;7.35;;;;;;;;;;5033970;28;20483;-30
2022/05/18 02:35:36;;;;;;;9.55;7.57;;;;;;;;;;5041916;28;20060;-33
2022/05/18 02:38:03;;;;;;;8.65;7.70;;;;;;;;;;5046176;28;20048;-31
2022/05/18 02:40:29;;;;;;;8.75;7.93;;;;;;;;;;5041369;28;20395;-31
2022/05/18 02:42:55;;;;;;;8.80;8.00;;;;;;;;;;5049571;28;20041;-33
2022/05/18 02:45:21;;;;;;;9.30;7.88;;;;;;;;;;5046109;28;20030;-33
2022/05/18 02:47:48;;;;;;;10.02;8.98;;;;;;;;;;5047927;28;20036;-31
2022/05/18 02:50:14;;;;;;;8.80;7.97;;;;;;;;;;5044746;28;20495;-32
2022/05/18 02:52:40;;;;;;;8.77;7.88;;;;;;;;;;5038918;28;20120;-31
2022/05/18 02:57:52;;;;;;;8.32;7.47;;;;;;;;;;5052073;28;20041;-33
2022/05/18 03:00:18;;;;;;;8.52;7.78;;;;;;;;;;5052346;28;20052;-32
2022/05/18 03:02:44;;;;;;;9.75;8.75;;;;;;;;;;5040700;28;20037;-35
2022/05/18 03:05:11;;;;;;;9.38;8.27;;;;;;;;;;5051888;28;20490;-33
2022/05/18 03:07:37;;;;;;;9.48;8.45;;;;;;;;;;5053158;28;20121;-35
2022/05/18 03:10:04;;;;;;;10.18;9.07;;;;;;;;;;5036324;28;20177;-32
2022/05/18 03:12:30;;;;;;;14.05;8.82;;;;;;;;;;5043763;28;20123;-32
2022/05/18 03:14:56;;;;;;;8.75;7.85;;;;;;;;;;5032865;28;20128;-31
2022/05/18 03:17:22;;;;;;;10.38;8.48;;;;;;;;;;5035674;28;20514;-29
2022/05/18 03:19:48;;;;;;;10.85;8.63;;;;;;;;;;5035988;28;20094;-30
2022/05/18 03:25:00;;;;;;;8.63;7.38;;;;;;;;;;5034275;28;20550;-29
2022/05/18 03:27:26;;;;;;;9.65;8.63;;;;;;;;;;5053896;28;20441;-30
2022/05/18 03:29:52;;;;;;;12.13;9.15;;;;;;;;;;5054117;28;20394;-30
2022/05/18 03:32:22;;;;;;;10.32;9.32;;;;;;;;;;5053545;28;20094;-30
2022/05/18 03:34:49;;;;;;;11.13;8.48;;;;;;;;;;5053020;28;20076;-31
2022/05/18 03:37:16;;;;;;;9.27;8.27;;;;;;;;;;5035527;28;20041;-30
2022/05/18 03:39:42;;;;;;;11.27;10.18;;;;;;;;;;5053338;28;20088;-29
2022/05/18 03:42:09;;;;;;;12.35;10.15;;;;;;;;;;5052611;28;20144;-29
2022/05/18 03:44:35;;;;;;;14.07;10.52;;;;;;;;;;5053575;28;20394;-30
2022/05/18 03:47:01;;;;;;;11.25;10.15;;;;;;;;;;5053221;28;20044;-29
2022/05/18 03:49:27;;;;;;;11.75;10.57;;;;;;;;;;5053253;28;20044;-29
2022/05/18 03:51:53;;;;;;;13.75;10.32;;;;;;;;;;5052892;28;20124;-29
2022/05/18 03:54:19;;;;;;;12.00;9.57;;;;;;;;;;5052855;28;20342;-30
2022/05/18 03:56:46;;;;;;;11.50;9.55;;;;;;;;;;5052694;28;20051;-29
2022/05/18 03:59:12;;;;;;;12.23;10.38;;;;;;;;;;5052680;28;20128;-30
2022/05/18 04:01:41;;;;;;;12.68;10.13;;;;;;;;;;5053014;28;20383;-30
2022/05/18 04:04:08;;;;;;;11.73;10.07;;;;;;;;;;5053123;28;20048;-30
2022/05/18 04:06:34;;;;;;;12.38;10.85;;;;;;;;;;5052279;28;20045;-30
2022/05/18 04:09:00;;;;;;;11.25;9.60;;;;;;;;;;5052638;28;20047;-31
2022/05/18 04:11:26;;;;;;;11.90;10.38;;;;;;;;;;5052440;28;20037;-29
2022/05/18 04:13:54;;;;;;;13.50;11.00;;;;;;;;;;5035367;28;20040;-30
2022/05/18 04:16:21;;;;;;;11.25;10.15;;;;;;;;;;5052593;28;20115;-30
2022/05/18 04:18:47;;;;;;;17.17;10.43;;;;;;;;;;5052457;28;20048;-29
2022/05/18 04:21:13;;;;;;;13.23;10.18;;;;;;;;;;5052203;28;20045;-31
2022/05/18 04:23:40;;;;;;;13.63;11.13;;;;;;;;;;5050842;28;20671;-30
2022/05/18 04:26:07;;;;;;;11.63;10.43;;;;;;;;;;5052027;28;20391;-30
2022/05/18 04:28:33;;;;;;;11.73;10.52;;;;;;;;;;5051453;28;20044;-31
2022/05/18 04:31:01;;;;;;;12.07;10.88;;;;;;;;;;5051731;28;20091;-30
2022/05/18 04:33:27;;;;;;;13.75;9.82;;;;;;;;;;5051537;28;20052;-30
2022/05/18 04:35:53;;;;;;;11.25;10.15;;;;;;;;;;5050926;28;20041;-29
2022/05/18 04:38:20;;;;;;;11.68;10.52;;;;;;;;;;5051980;28;20045;-31
2022/05/18 04:40:47;;;;;;;11.85;10.50;;;;;;;;;;5051629;28;20045;-30
2022/05/18 04:43:13;;;;;;;14.85;11.50;;;;;;;;;;5052327;28;20056;-30
2022/05/18 04:45:44;;;;;;;11.90;10.55;;;;;;;;;;5033854;28;20044;-30
2022/05/18 04:48:12;;;;;;;12.13;10.77;;;;;;;;;;5051990;28;20059;-30
2022/05/18 04:50:38;;;;;;;12.60;11.38;;;;;;;;;;5052034;28;20073;-30
2022/05/18 04:53:05;;;;;;;13.95;12.25;;;;;;;;;;5052067;28;20040;-30
2022/05/18 04:55:31;;;;;;;13.25;11.57;;;;;;;;;;5052477;28;20051;-30
2022/05/18 04:58:03;;;;;;;13.15;11.77;;;;;;;;;;5052285;28;20068;-30
2022/05/18 05:00:29;;;;;;;15.93;12.70;;;;;;;;;;5052133;28;20049;-30
2022/05/18 05:02:56;;;;;;;13.43;11.98;;;;;;;;;;5051925;28;20376;-30
2022/05/18 05:05:22;;;;;;;14.00;12.48;;;;;;;;;;5051939;28;20044;-29
2022/05/18 05:07:49;;;;;;;18.30;13.55;;;;;;;;;;5051465;28;20048;-29
2022/05/18 05:10:16;;;;;;;14.32;12.05;;;;;;;;;;5052356;28;20072;-29
2022/05/18 05:12:42;;;;;;;13.23;11.75;;;;;;;;;;5052083;28;20124;-29
2022/05/18 05:15:09;;;;;;;15.77;13.07;;;;;;;;;;5051694;28;20514;-30
2022/05/18 05:17:35;;;;;;;13.00;11.35;;;;;;;;;;5052039;28;20165;-31
2022/05/18 05:20:01;;;;;;;14.90;11.90;;;;;;;;;;5051455;28;20051;-29
2022/05/18 05:22:27;;;;;;;14.57;13.02;;;;;;;;;;5033894;28;20055;-30
2022/05/18 05:24:53;;;;;;;15.63;12.68;;;;;;;;;;5051893;28;20076;-29
2022/05/18 05:27:19;;;;;;;13.45;12.05;;;;;;;;;;5051729;28;20041;-30
2022/05/18 05:29:46;;;;;;;13.38;12.02;;;;;;;;;;5050659;28;20111;-32
2022/05/18 05:32:12;;;;;;;16.55;13.45;;;;;;;;;;5051576;28;20048;-30
2022/05/18 05:34:38;;;;;;;13.73;12.40;;;;;;;;;;5049451;28;20457;-28
2022/05/18 05:37:05;;;;;;;15.63;13.95;;;;;;;;;;5042832;28;20037;-29
2022/05/18 05:39:31;;;;;;;15.82;14.20;;;;;;;;;;5051779;28;20064;-29
2022/05/18 05:41:57;;;;;;;18.63;14.45;;;;;;;;;;5047129;28;20080;-29
2022/05/18 05:44:23;;;;;;;16.25;14.00;;;;;;;;;;5032900;28;20033;-29
2022/05/18 05:46:50;;;;;;;14.27;12.77;;;;;;;;;;5032259;28;20041;-30
2022/05/18 05:49:17;;;;;;;16.20;14.52;;;;;;;;;;5039894;28;20051;-29
2022/05/18 05:51:43;;;;;;;15.27;13.68;;;;;;;;;;5037781;28;20037;-29
2022/05/18 05:54:09;;;;;;;16.45;13.82;;;;;;;;;;5043118;28;20029;-29
2022/05/18 05:56:35;;;;;;;14.30;12.88;;;;;;;;;;5050617;28;20137;-29
2022/05/18 05:59:01;;;;;;;15.48;13.63;;;;;;;;;;5045711;28;20044;-29
2022/05/18 06:01:27;;;;;;;17.52;14.30;;;;;;;;;;5045785;28;20044;-29
2022/05/18 06:03:53;;;;;;;15.95;13.60;;;;;;;;;;5037941;28;20087;-29
2022/05/18 06:06:20;;;;;;;15.32;13.70;;;;;;;;;;5043954;28;20097;-29
2022/05/18 06:08:47;;;;;;;14.45;13.05;;;;;;;;;;5054506;28;20190;-29
2022/05/18 06:11:13;;;;;;;14.48;13.05;;;;;;;;;;5052498;28;20098;-29
2022/05/18 06:13:39;;;;;;;13.93;12.35;;;;;;;;;;5034148;28;20045;-29
2022/05/18 06:16:07;;;;;;;13.40;12.10;;;;;;;;;;5038284;28;20059;-30
2022/05/18 06:18:34;;;;;;;14.18;12.77;;;;;;;;;;5038508;28;20049;-29
2022/05/18 06:21:00;;;;;;;14.23;12.75;;;;;;;;;;5034004;28;20045;-29
2022/05/18 06:23:26;;;;;;;13.93;12.43;;;;;;;;;;5033978;28;20410;-29
2022/05/18 06:25:52;;;;;;;16.60;12.63;;;;;;;;;;5040659;28;20110;-29
2022/05/18 06:28:19;;;;;;;14.07;12.65;;;;;;;;;;5048403;28;20040;-31
2022/05/18 06:30:45;;;;;;;14.05;12.55;;;;;;;;;;5039195;28;20030;-29
2022/05/18 06:33:11;;;;;;;15.00;12.43;;;;;;;;;;5033908;28;20076;-29
2022/05/18 06:35:37;;;;;;;14.30;12.88;;;;;;;;;;5040714;28;20045;-29
2022/05/18 06:38:10;;;;;;;14.32;12.05;;;;;;;;;;5026934;28;20042;-29
2022/05/18 06:43:22;;;;;;;13.73;12.52;;;;;;;;;;5053331;28;20049;-29
2022/05/18 06:45:49;;;;;;;14.02;12.35;;;;;;;;;;5050826;28;20397;-29
2022/05/18 06:48:15;;;;;;;19.55;12.60;;;;;;;;;;5042405;28;20037;-29
2022/05/18 06:50:41;;;;;;;13.93;12.48;;;;;;;;;;5036352;28;20190;-29
2022/05/18 06:53:07;;;;;;;17.23;12.13;;;;;;;;;;5044409;28;20120;-29
2022/05/18 06:55:33;;;;;;;15.05;12.85;;;;;;;;;;5051101;28;20037;-31
2022/05/18 06:57:59;;;;;;;16.38;12.70;;;;;;;;;;5045259;28;20103;-32
2022/05/18 07:00:25;;;;;;;14.20;12.20;;;;;;;;;;5041136;28;20033;-32
2022/05/18 07:02:51;;;;;;;12.63;11.48;;;;;;;;;;5031020;28;20129;-33
2022/05/18 07:05:18;;;;;;;14.25;12.32;;;;;;;;;;5032084;28;20312;-31
2022/05/18 07:07:44;;;;;;;12.43;11.38;;;;;;;;;;5040471;28;20045;-31
2022/05/18 07:10:10;;;;;;;14.07;11.70;;;;;;;;;;5035992;28;20439;-32
2022/05/18 07:12:37;;;;;;;12.82;11.63;;;;;;;;;;5032391;28;20041;-31
2022/05/18 07:15:07;;;;;;;12.75;11.45;;;;;;;;;;5030392;28;20546;-32
2022/05/18 07:17:34;;;;;;;13.57;12.05;;;;;;;;;;5037800;28;20048;-34
2022/05/18 07:20:00;;;;;;;12.63;11.32;;;;;;;;;;5037859;28;20036;-33
2022/05/18 07:22:26;;;;;;;13.43;12.07;;;;;;;;;;5039009;28;20395;-31
2022/05/18 07:24:52;;;;;;;12.50;11.07;;;;;;;;;;5037176;28;20029;-31
2022/05/18 07:27:19;;;;;;;12.95;11.55;;;;;;;;;;5037993;28;20036;-32
2022/05/18 07:29:45;;;;;;;12.93;11.60;;;;;;;;;;5024334;28;20124;-32
2022/05/18 07:32:14;;;;;;;12.48;11.18;;;;;;;;;;5042989;28;20041;-31
2022/05/18 07:34:44;;;;;;;13.23;11.88;;;;;;;;;;5040811;28;20124;-32
2022/05/18 07:37:11;;;;;;;12.82;11.10;;;;;;;;;;5018970;28;20057;-33
2022/05/18 07:39:37;;;;;;;12.57;11.18;;;;;;;;;;5031608;28;20426;-32
2022/05/18 07:42:05;;;;;;;15.35;11.38;;;;;;;;;;5032168;28;20049;-29
2022/05/18 07:44:32;;;;;;;11.82;10.63;;;;;;;;;;5033484;28;20040;-32
2022/05/18 07:46:58;;;;;;;12.30;10.75;;;;;;;;;;5031359;28;20091;-32
2022/05/18 07:49:24;;;;;;;12.20;10.27;;;;;;;;;;5038253;28;20041;-32
2022/05/18 07:51:50;;;;;;;12.65;10.73;;;;;;;;;;5028344;28;20509;-32
2022/05/18 07:54:17;;;;;;;13.30;10.43;;;;;;;;;;5048788;28;20065;-32
2022/05/18 07:56:43;;;;;;;11.80;10.70;;;;;;;;;;5036003;28;20120;-33
2022/05/18 07:59:10;;;;;;;11.95;10.75;;;;;;;;;;5040492;28;20040;-32
2022/05/18 08:01:39;;;;;;;11.30;10.30;;;;;;;;;;5042058;28;20112;-32
2022/05/18 08:04:05;;;;;;;11.52;10.32;;;;;;;;;;5040496;28;20041;-31
2022/05/18 08:06:32;;;;;;;11.38;10.20;;;;;;;;;;5037352;28;20044;-31
2022/05/18 08:08:58;;;;;;;11.55;10.38;;;;;;;;;;5034582;28;20037;-31
2022/05/18 08:16:54;;;;;;;11.90;10.68;;;;;;;;;;5035514;28;20465;-32
2022/05/18 08:19:20;;;;;;;10.57;9.30;;;;;;;;;;5037094;28;20121;-32
2022/05/18 08:21:47;;;;;;;10.27;8.88;;;;;;;;;;5036083;28;20052;-31
2022/05/18 08:24:13;;;;;;;10.57;8.75;;;;;;;;;;5044971;28;20120;-31
2022/05/18 08:26:41;;;;;;;9.30;8.32;;;;;;;;;;5049829;28;20033;-31
2022/05/18 08:29:07;;;;;;;11.85;9.20;;;;;;;;;;5031045;28;20128;-32
2022/05/18 08:31:33;;;;;;;9.73;8.82;;;;;;;;;;5037927;28;20072;-33
2022/05/18 08:34:00;;;;;;;9.68;8.40;;;;;;;;;;5041481;28;20041;-32
2022/05/18 08:36:26;;;;;;;9.60;7.57;;;;;;;;;;5041680;28;20037;-32
2022/05/18 08:38:53;;;;;;;9.02;7.47;;;;;;;;;;5041879;28;20045;-31
2022/05/18 08:41:21;;;;;;;8.18;7.40;;;;;;;;;;5042220;28;20175;-31
2022/05/18 08:43:50;;;;;;;8.60;7.57;;;;;;;;;;5036397;28;20509;-32
2022/05/18 08:46:25;;;;;;;9.00;8.10;;;;;;;;;;5034392;28;20052;-31
2022/05/18 08:49:11;;;;;;;8.20;7.45;;;;;;;;;;5042745;28;20037;-32
2022/05/18 08:51:48;;;;;;;7.68;6.90;;;;;;;;;;5041602;28;20091;-32
2022/05/18 08:54:24;;;;;;;8.68;7.85;;;;;;;;;;5033801;28;20042;-32
2022/05/18 08:56:51;;;;;;;8.50;7.63;;;;;;;;;;5036854;28;20394;-33
2022/05/18 08:59:21;;;;;;;8.30;7.43;;;;;;;;;;5044958;28;20037;-32
2022/05/18 09:01:51;;;;;;;8.18;6.90;;;;;;;;;;5030952;28;20407;-32
2022/05/18 09:04:25;;;;;;;9.70;6.80;;;;;;;;;;5030421;28;20271;-32
2022/05/18 09:06:51;;;;;;;8.40;6.78;;;;;;;;;;5037759;28;20038;-32
2022/05/18 09:12:12;;;;;;;6.40;5.35;;;;;;;;;;5033272;28;20049;-34
2022/05/18 09:14:40;;;;;;;5.97;5.35;;;;;;;;;;5031124;28;20107;-33
2022/05/18 09:17:08;;;;;;;5.45;4.95;;;;;;;;;;5029508;28;20442;-32
2022/05/18 09:19:58;;;;;;;5.07;4.47;;;;;;;;;;5045347;28;20080;-32
2022/05/18 09:23:02;;;;;;;6.47;5.00;;;;;;;;;;5033613;28;20049;-32
2022/05/18 09:25:28;;;;;;;6.18;4.82;;;;;;;;;;4962971;28;20043;-34
2022/05/18 09:27:55;;;;;;;6.38;4.85;;;;;;;;;;4966662;28;20122;-34
2022/05/18 09:30:22;;;;;;;6.45;4.78;;;;;;;;;;4991551;28;20450;-31
2022/05/18 09:33:12;;;;;;;6.85;5.18;;;;;;;;;;5043568;28;20041;-33
2022/05/18 09:35:39;;;;;;;5.80;5.07;;;;;;;;;;5034815;28;20048;-33
2022/05/18 09:38:05;;;;;;;4.72;4.32;;;;;;;;;;5030231;28;20051;-33
2022/05/18 09:40:41;;;;;;;6.70;5.32;;;;;;;;;;5039231;28;20037;-33
2022/05/18 09:43:26;;;;;;;6.53;4.40;;;;;;;;;;5050551;28;20063;-33
2022/05/18 09:45:53;;;;;;;5.47;4.82;;;;;;;;;;5037592;28;20060;-33
2022/05/18 09:48:46;;;;;;;5.13;4.35;;;;;;;;;;5029703;28;20053;-33
2022/05/18 09:51:12;;;;;;;6.88;5.32;;;;;;;;;;5031606;28;20156;-32
2022/05/18 09:53:39;;;;;;;5.50;4.90;;;;;;;;;;5042139;28;20093;-33
2022/05/18 09:56:08;;;;;;;5.28;4.70;;;;;;;;;;5023753;28;20128;-31
2022/05/18 09:58:37;;;;;;;6.43;5.82;;;;;;;;;;5035998;28;20423;-30
2022/05/18 10:09:27;;;;;;;8.18;6.05;;;;;;;;;;5050490;28;20041;-29
2022/05/18 10:11:53;;;;;;;7.30;6.40;;;;;;;;;;5050385;28;20242;-31
2022/05/18 10:14:30;;;;;;;7.22;6.07;;;;;;;;;;5047513;28;20112;-29
2022/05/18 10:17:05;;;;;;;6.18;5.35;;;;;;;;;;5050235;28;20052;-31
2022/05/18 10:19:36;;;;;;;5.07;4.50;;;;;;;;;;5035836;28;20037;-32
2022/05/18 10:22:04;;;;;;;7.50;5.70;;;;;;;;;;5052889;28;20037;-30
2022/05/18 10:24:39;;;;;;;9.88;6.38;;;;;;;;;;5053875;28;20044;-30
2022/05/18 10:27:08;;;;;;;7.13;6.47;;;;;;;;;;5052579;28;20033;-32
2022/05/18 10:29:34;;;;;;;10.43;6.50;;;;;;;;;;5053550;28;20040;-30
2022/05/18 10:32:09;;;;;;;7.00;6.40;;;;;;;;;;5052734;28;20048;-30
2022/05/18 10:34:43;;;;;;;8.07;7.28;;;;;;;;;;5053896;28;20514;-31
2022/05/18 10:37:11;;;;;;;8.73;7.93;;;;;;;;;;5052575;28;20103;-31
2022/05/18 10:39:37;;;;;;;7.50;6.72;;;;;;;;;;5053653;28;20041;-31
2022/05/18 10:42:14;;;;;;;7.85;7.10;;;;;;;;;;5052715;28;20084;-31
2022/05/18 10:44:40;;;;;;;9.45;8.43;;;;;;;;;;5053756;28;20045;-33
2022/05/18 10:47:30;;;;;;;9.88;8.88;;;;;;;;;;5053486;28;20084;-30
2022/05/18 10:50:23;;;;;;;7.68;6.97;;;;;;;;;;5052913;28;20064;-30
2022/05/18 10:52:49;;;;;;;;;;;;;;;;;;5053873;28;20045;-32
2022/05/18 10:55:17;;;;;;;10.15;8.60;;;;;;;;;;5052666;28;19955;-31
2022/05/18 10:58:15;;;;;;;9.32;8.52;;;;;;;;;;5039780;28;20128;-30
2022/05/18 11:00:47;;;;;;;9.10;8.27;;;;;;;;;;4985645;28;20057;-30
2022/05/18 11:03:16;;;;;;;9.35;8.30;;;;;;;;;;5052962;28;20037;-30
2022/05/18 11:05:43;;;;;;;9.75;7.55;;;;;;;;;;5044537;28;20041;-30
2022/05/18 11:08:14;;;;;;;9.60;8.65;;;;;;;;;;5050484;28;20041;-31
2022/05/18 11:10:50;;;;;;;8.23;7.15;;;;;;;;;;5053188;28;20091;-30
2022/05/18 11:13:36;;;;;;;8.55;7.72;;;;;;;;;;5053055;28;20116;-30
2022/05/18 11:16:13;;;;;;;8.15;7.35;;;;;;;;;;5007787;28;20053;-31
2022/05/18 11:18:44;;;;;;;7.60;6.90;;;;;;;;;;5049895;28;20398;-30
2022/05/18 11:21:21;;;;;;;6.03;5.43;;;;;;;;;;5033025;28;20057;-30
2022/05/18 11:24:06;;;;;;;7.60;6.80;;;;;;;;;;5032554;28;20507;-30
2022/05/18 11:26:35;;;;;;;10.90;9.30;;;;;;;;;;5034247;28;20249;-30
2022/05/18 11:29:13;;;;;;;9.93;8.95;;;;;;;;;;5052701;28;20044;-30
2022/05/18 11:31:39;;;;;;;9.27;8.38;;;;;;;;;;5032526;28;20167;-30
2022/05/18 11:34:05;;;;;;;9.50;8.60;;;;;;;;;;5031374;28;20125;-29
2022/05/18 11:36:54;;;;;;;9.38;8.35;;;;;;;;;;5040679;28;20048;-31
2022/05/18 11:39:29;;;;;;;9.55;7.40;;;;;;;;;;5043436;28;20075;-30
2022/05/18 11:41:58;;;;;;;9.43;8.50;;;;;;;;;;5045194;28;20037;-29
2022/05/18 11:44:28;;;;;;;9.77;8.88;;;;;;;;;;5032922;28;20120;-29
2022/05/18 11:46:54;;;;;;;11.57;9.05;;;;;;;;;;5049818;28;20033;-30
2022/05/18 11:49:25;;;;;;;9.60;8.00;;;;;;;;;;5052087;28;20048;-29
2022/05/18 11:52:10;;;;;;;10.30;8.65;;;;;;;;;;5046980;28;20041;-30
2022/05/18 11:54:57;;;;;;;8.85;8.05;;;;;;;;;;5052245;28;20407;-30
2022/05/18 11:57:29;;;;;;;10.85;9.02;;;;;;;;;;5042127;28;20522;-32
2022/05/18 11:59:57;;;;;;;;;;;;;;;;;;5032441;28;20438;-30
2022/05/18 12:02:29;;;;;;;9.68;8.88;;;;;;;;;;5042844;28;19920;-31
2022/05/18 12:05:06;;;;;;;11.35;9.60;;;;;;;;;;5043693;28;20049;-31
2022/05/18 12:07:52;;;;;;;10.20;8.98;;;;;;;;;;5034430;28;20041;-29
2022/05/18 12:10:29;;;;;;;11.02;7.82;;;;;;;;;;5033009;28;20052;-30
2022/05/18 12:13:14;;;;;;;10.27;7.22;;;;;;;;;;5034623;28;20120;-29
2022/05/18 12:15:43;;;;;;;9.68;8.40;;;;;;;;;;5051412;28;20040;-30
2022/05/18 12:18:15;;;;;;;8.95;7.90;;;;;;;;;;5052291;28;20037;-31
2022/05/18 12:20:48;;;;;;;8.13;7.43;;;;;;;;;;5052051;28;20045;-29
2022/05/18 12:23:17;;;;;;;9.32;7.18;;;;;;;;;;5044566;28;20048;-30
2022/05/18 12:25:44;;;;;;;8.30;7.53;;;;;;;;;;5032008;28;20033;-30
2022/05/18 12:28:11;;;;;;;7.95;7.15;;;;;;;;;;5031726;28;20038;-30
2022/05/18 12:30:39;;;;;;;7.82;7.13;;;;;;;;;;5031050;28;20033;-30
2022/05/18 12:33:06;;;;;;;11.90;10.38;;;;;;;;;;5039966;28;20045;-30
2022/05/18 12:35:35;;;;;;;11.27;10.27;;;;;;;;;;5051124;28;20418;-29
2022/05/18 12:38:01;;;;;;;12.85;9.75;;;;;;;;;;5051216;28;20120;-29
2022/05/18 12:40:45;;;;;;;8.98;8.15;;;;;;;;;;5051175;28;20037;-30
2022/05/18 12:43:14;;;;;;;11.60;10.35;;;;;;;;;;5047081;28;20048;-30
2022/05/18 12:45:42;;;;;;;10.68;9.55;;;;;;;;;;5051384;28;20512;-30
2022/05/18 12:48:10;;;;;;;12.20;10.90;;;;;;;;;;5034585;28;20048;-30
2022/05/18 12:50:41;;;;;;;11.00;9.90;;;;;;;;;;5031588;28;20048;-31
2022/05/18 12:53:33;;;;;;;11.70;10.13;;;;;;;;;;5030827;28;20120;-31
2022/05/18 12:56:01;;;;;;;10.48;9.48;;;;;;;;;;5027043;28;20060;-30
2022/05/18 12:58:31;;;;;;;9.70;8.73;;;;;;;;;;5039985;28;20317;-29
2022/05/18 13:01:04;;;;;;;12.95;10.15;;;;;;;;;;5050975;28;20488;-30
2022/05/18 13:03:44;;;;;;;12.82;11.48;;;;;;;;;;5051119;28;20474;-30
2022/05/18 13:06:18;;;;;;;11.85;10.65;;;;;;;;;;5043424;28;20045;-31
2022/05/18 13:08:56;;;;;;;12.70;11.40;;;;;;;;;;5051072;28;20045;-30
2022/05/18 13:11:22;;;;;;;12.23;10.93;;;;;;;;;;5051783;28;20044;-31
2022/05/18 13:14:06;;;;;;;11.60;9.02;;;;;;;;;;5051320;28;20048;-30
2022/05/18 13:16:55;;;;;;;13.68;10.93;;;;;;;;;;5046777;28;20033;-31
2022/05/18 13:19:25;;;;;;;13.63;12.25;;;;;;;;;;5025461;28;20056;-31
2022/05/18 13:21:52;;;;;;;13.25;11.95;;;;;;;;;;5030671;28;20048;-31
2022/05/18 13:24:20;;;;;;;14.30;12.90;;;;;;;;;;5031130;28;20402;-31
2022/05/18 13:26:50;;;;;;;15.57;14.02;;;;;;;;;;5031226;28;20497;-31
2022/05/18 13:29:18;;;;;;;15.45;14.05;;;;;;;;;;5046946;28;20048;-30
2022/05/18 13:31:47;;;;;;;16.92;15.32;;;;;;;;;;5050858;28;20048;-31
2022/05/18 13:34:15;;;;;;;15.52;14.02;;;;;;;;;;5050689;28;20037;-30
2022/05/18 13:36:43;;;;;;;17.52;15.75;;;;;;;;;;5051043;28;20081;-31
2022/05/18 13:39:11;;;;;;;17.83;16.02;;;;;;;;;;5050685;28;20063;-30
2022/05/18 13:41:37;;;;;;;17.40;15.65;;;;;;;;;;5050872;28;20049;-30
2022/05/18 13:44:04;;;;;;;14.80;13.30;;;;;;;;;;5049668;28;20045;-31
2022/05/18 13:46:32;;;;;;;18.80;16.98;;;;;;;;;;5050771;28;20047;-31
2022/05/18 13:49:01;;;;;;;16.00;14.40;;;;;;;;;;5050824;28;20040;-30
2022/05/18 13:51:30;;;;;;;16.60;15.00;;;;;;;;;;5046890;28;20045;-31
2022/05/18 13:54:01;;;;;;;15.88;14.40;;;;;;;;;;5031082;28;20037;-30
2022/05/18 13:56:31;;;;;;;16.45;14.95;;;;;;;;;;5035016;28;20402;-31
2022/05/18 13:59:02;;;;;;;18.00;16.25;;;;;;;;;;5038665;28;20131;-30
2022/05/18 14:01:40;;;;;;;17.23;15.73;;;;;;;;;;5034963;28;20092;-32
2022/05/18 14:04:06;;;;;;;18.70;16.95;;;;;;;;;;5033922;28;20049;-31
2022/05/18 14:06:33;;;;;;;18.30;16.52;;;;;;;;;;5053813;28;20045;-30
2022/05/18 14:09:04;;;;;;;17.05;15.35;;;;;;;;;;5054492;28;20033;-30
2022/05/18 14:11:30;;;;;;;16.55;15.05;;;;;;;;;;5042139;28;20037;-30
2022/05/18 14:13:57;;;;;;;16.70;15.10;;;;;;;;;;5033562;28;20048;-34
2022/05/18 14:16:39;;;;;;;16.95;15.35;;;;;;;;;;5052044;28;20296;-33
2022/05/18 14:19:06;;;;;;;17.75;16.15;;;;;;;;;;5039649;28;20406;-33
2022/05/18 14:21:32;;;;;;;19.15;17.45;;;;;;;;;;5036602;28;20041;-33
2022/05/18 14:24:02;;;;;;;17.35;15.75;;;;;;;;;;5053098;28;20045;-34
2022/05/18 14:26:32;;;;;;;17.13;15.60;;;;;;;;;;5041143;28;20163;-35
2022/05/18 14:29:00;;;;;;;15.95;14.35;;;;;;;;;;5037268;28;20483;-34
2022/05/18 14:31:29;;;;;;;16.02;14.52;;;;;;;;;;5040210;28;20090;-36
2022/05/18 14:34:03;;;;;;;15.23;13.63;;;;;;;;;;5039481;28;20131;-33
2022/05/18 14:36:44;;;;;;;14.50;13.20;;;;;;;;;;5045559;28;20049;-34
2022/05/18 14:39:22;;;;;;;15.88;14.48;;;;;;;;;;5039480;28;20175;-34
2022/05/18 14:41:51;;;;;;;14.48;12.98;;;;;;;;;;5034330;28;20045;-33
2022/05/18 14:44:24;;;;;;;15.60;14.07;;;;;;;;;;5044142;28;20044;-34
2022/05/18 14:46:55;;;;;;;15.60;14.15;;;;;;;;;;5052529;28;20037;-33
2022/05/18 14:49:22;;;;;;;14.90;13.52;;;;;;;;;;5044582;28;20094;-34
2022/05/18 14:51:55;;;;;;;17.73;16.02;;;;;;;;;;5052144;28;20036;-34
2022/05/18 14:54:28;;;;;;;15.98;14.50;;;;;;;;;;5038368;28;20046;-33
2022/05/18 14:56:58;;;;;;;16.63;14.88;;;;;;;;;;5032106;28;20046;-35
2022/05/18 14:59:25;;;;;;;16.45;13.25;;;;;;;;;;5032402;28;20085;-33
2022/05/18 15:01:54;;;;;;;15.20;13.60;;;;;;;;;;5040055;28;20041;-34
2022/05/18 15:04:37;;;;;;;16.65;14.45;;;;;;;;;;5048742;28;20049;-34
2022/05/18 15:07:02;;;;;;;;;;;;;;;;;;5041361;28;20059;-33